Time;durP1;ratioP1;P1;durP2;ratioP2;P2;SDS_P1;SDS_P2;PMS_P1;PMS_P2;Temp;Humidity;BMP_temperature;BMP_pressure;BME280_temperature;BME280_humidity;BME280_pressure;Samples;Min_cycle;Max_cycle;Signal;HPM_P1;HPM_P2
2023/01/23 00:00:21;;;;;;;;;;;-2.80;99.90;;;;;;5005562;28;19956;-78
2023/01/23 00:02:47;;;;;;;;;;;-2.80;99.90;;;;;;5008041;28;19917;-78
2023/01/23 00:05:12;;;;;;;;;;;-2.80;99.90;;;;;;5017418;28;20393;-78
2023/01/23 00:07:38;;;;;;;;;;;-3.00;99.90;;;;;;5006636;28;19949;-79
2023/01/23 00:10:04;;;;;;;;;;;-3.00;99.90;;;;;;5023390;28;19909;-79
2023/01/23 00:12:29;;;;;;;;;;;-3.00;99.90;;;;;;5022673;28;19914;-77
2023/01/23 00:14:55;;;;;;;;;;;-3.10;99.90;;;;;;5003967;28;19917;-78
2023/01/23 00:17:20;;;;;;;;;;;-3.10;99.90;;;;;;5003681;28;19918;-79
2023/01/23 00:19:46;;;;;;;;;;;-3.10;99.90;;;;;;5023707;28;19944;-79
2023/01/23 00:22:14;;;;;;;;;;;-3.10;99.90;;;;;;5005952;28;19918;-78
2023/01/23 00:24:39;;;;;;;;;;;-3.20;99.90;;;;;;5005292;28;19917;-78
2023/01/23 00:27:05;;;;;;;;;;;-3.20;99.90;;;;;;5002104;28;20347;-77
2023/01/23 00:29:30;;;;;;;;;;;-3.20;99.90;;;;;;5026682;28;20467;-76
2023/01/23 00:31:56;;;;;;;;;;;-3.20;99.90;;;;;;5015728;28;19928;-79
2023/01/23 00:34:21;;;;;;;;;;;-3.20;99.90;;;;;;5021239;28;19917;-78
2023/01/23 00:36:47;;;;;;;;;;;-3.20;99.90;;;;;;5020590;28;19913;-77
2023/01/23 00:39:21;;;;;;;;;;;-3.20;99.90;;;;;;5001031;28;19921;-78
2023/01/23 00:41:47;;;;;;;;;;;-3.30;99.90;;;;;;5013255;28;19916;-77
2023/01/23 00:44:13;;;;;;;;;;;-3.40;99.90;;;;;;5021605;28;20295;-78
2023/01/23 00:46:39;;;;;;;;;;;-3.40;99.90;;;;;;5023769;28;19910;-79
2023/01/23 00:49:05;;;;;;;;;;;-3.40;99.90;;;;;;5008981;28;19918;-78
2023/01/23 00:51:30;;;;;;;;;;;-3.40;99.90;;;;;;5003291;28;19917;-79
2023/01/23 00:53:56;;;;;;;;;;;-3.30;99.90;;;;;;4991849;28;19913;-78
2023/01/23 00:56:21;;;;;;;;;;;-3.30;99.90;;;;;;4999183;28;19913;-79
2023/01/23 00:58:47;;;;;;;;;;;-3.30;99.90;;;;;;5022681;28;20418;-79
2023/01/23 01:01:13;;;;;;;;;;;-3.30;99.90;;;;;;5023447;28;19913;-79
2023/01/23 01:03:39;;;;;;;;;;;-3.30;99.90;;;;;;5022366;28;20358;-79
2023/01/23 01:06:04;;;;;;;;;;;-3.20;99.90;;;;;;5024643;28;19918;-79
2023/01/23 01:08:30;;;;;;;;;;;-3.10;99.90;;;;;;5035456;28;19908;-79
2023/01/23 01:10:55;;;;;;;;;;;-3.00;99.90;;;;;;5034852;28;19955;-78
2023/01/23 01:13:22;;;;;;;;;;;-3.00;99.90;;;;;;5032559;28;19933;-78
2023/01/23 01:15:48;;;;;;;;;;;-2.90;99.90;;;;;;4998668;28;19918;-78
2023/01/23 01:18:14;;;;;;;;;;;-2.90;99.90;;;;;;5013518;28;19914;-78
2023/01/23 01:20:40;;;;;;;;;;;-2.70;99.90;;;;;;5020215;28;20374;-77
2023/01/23 01:23:06;;;;;;;;;;;-2.70;99.90;;;;;;5022545;28;20473;-78
2023/01/23 01:25:31;;;;;;;;;;;-2.70;99.90;;;;;;4998152;28;19969;-77
2023/01/23 01:27:57;;;;;;;;;;;-2.60;99.90;;;;;;5007501;28;19977;-77
2023/01/23 01:30:25;;;;;;;;;;;-2.60;99.90;;;;;;5018991;28;19921;-77
2023/01/23 01:32:52;;;;;;;;;;;-2.60;99.90;;;;;;4998503;28;19928;-78
2023/01/23 01:35:17;;;;;;;;;;;-2.60;99.90;;;;;;5019161;28;19917;-78
2023/01/23 01:37:43;;;;;;;;;;;-2.60;99.90;;;;;;5027614;28;19910;-77
2023/01/23 01:40:11;;;;;;;;;;;-2.70;99.90;;;;;;5010239;28;19971;-77
2023/01/23 01:42:48;;;;;;;;;;;-2.60;99.90;;;;;;5018791;28;19917;-77
2023/01/23 01:45:32;;;;;;;;;;;-2.60;99.90;;;;;;5018490;28;19918;-78
2023/01/23 01:47:58;;;;;;;;;;;-2.70;99.90;;;;;;5000812;28;19928;-78
2023/01/23 01:50:23;;;;;;;;;;;-2.70;99.90;;;;;;5012580;28;19913;-78
2023/01/23 01:52:49;;;;;;;;;;;-2.70;99.90;;;;;;5018287;28;19924;-77
2023/01/23 01:55:14;;;;;;;;;;;-2.70;99.90;;;;;;5002404;28;19914;-78
2023/01/23 01:57:42;;;;;;;;;;;-2.70;99.90;;;;;;5024401;28;19918;-78
2023/01/23 02:00:10;;;;;;;;;;;-2.70;99.90;;;;;;5024045;28;19913;-78
2023/01/23 02:02:57;;;;;;;;;;;-2.70;99.90;;;;;;5021403;28;19993;-78
2023/01/23 02:05:24;;;;;;;;;;;-2.70;99.90;;;;;;5013408;28;19897;-78
2023/01/23 02:07:53;;;;;;;;;;;-2.70;99.90;;;;;;5018023;28;19910;-78
2023/01/23 02:10:19;;;;;;;;;;;-2.70;99.90;;;;;;4997560;28;19917;-78
2023/01/23 02:12:46;;;;;;;;;;;-2.70;99.90;;;;;;5015331;28;19921;-77
2023/01/23 02:15:11;;;;;;;;;;;-2.70;99.90;;;;;;5017944;28;19921;-78
2023/01/23 02:17:37;;;;;;;;;;;-2.70;99.90;;;;;;5021861;28;19932;-77
2023/01/23 02:20:09;;;;;;;;;;;-2.70;99.90;;;;;;5009419;28;20021;-78
2023/01/23 02:22:34;;;;;;;;;;;-2.70;99.90;;;;;;5017899;28;19925;-78
2023/01/23 02:25:19;;;;;;;;;;;-2.80;99.90;;;;;;5022010;28;19917;-78
2023/01/23 02:27:44;;;;;;;;;;;-2.70;99.90;;;;;;5023926;28;19914;-78
2023/01/23 02:30:11;;;;;;;;;;;-2.80;99.90;;;;;;5023288;28;19987;-78
2023/01/23 02:32:36;;;;;;;;;;;-2.70;99.90;;;;;;5022340;28;20257;-78
2023/01/23 02:35:07;;;;;;;;;;;-2.70;99.90;;;;;;5006598;28;19972;-78
2023/01/23 02:37:33;;;;;;;;;;;-2.70;99.90;;;;;;5019010;28;19916;-79
2023/01/23 02:40:00;;;;;;;;;;;-2.60;99.90;;;;;;5015036;28;19918;-78
2023/01/23 02:42:26;;;;;;;;;;;-2.60;99.90;;;;;;5005402;28;19928;-78
2023/01/23 02:44:54;;;;;;;;;;;-2.50;99.90;;;;;;4997413;28;19929;-78
2023/01/23 02:47:20;;;;;;;;;;;-2.50;99.90;;;;;;5025281;28;19929;-79
2023/01/23 02:49:45;;;;;;;;;;;-2.40;99.90;;;;;;5007288;28;20314;-78
2023/01/23 02:52:11;;;;;;;;;;;-2.40;99.90;;;;;;5025792;28;19917;-78
2023/01/23 02:54:38;;;;;;;;;;;-2.30;99.90;;;;;;5007539;28;19956;-79
2023/01/23 02:57:04;;;;;;;;;;;-2.30;99.90;;;;;;5021704;28;20009;-79
2023/01/23 03:02:14;;;;;;;;;;;-2.30;99.90;;;;;;5015773;28;19960;-77
2023/01/23 03:04:40;;;;;;;;;;;-2.30;99.90;;;;;;5003188;28;20350;-78
2023/01/23 03:07:05;;;;;;;;;;;-2.40;99.90;;;;;;5000471;28;19952;-78
2023/01/23 03:09:32;;;;;;;;;;;-2.40;99.90;;;;;;5012508;28;20020;-78
2023/01/23 03:11:57;;;;;;;;;;;-2.40;99.90;;;;;;5024642;28;19913;-78
2023/01/23 03:14:23;;;;;;;;;;;-2.40;99.90;;;;;;5006067;28;19920;-78
2023/01/23 03:16:51;;;;;;;;;;;-2.30;99.90;;;;;;5023348;28;19910;-80
2023/01/23 03:19:17;;;;;;;;;;;-2.30;99.90;;;;;;5022057;28;19917;-77
2023/01/23 03:21:43;;;;;;;;;;;-2.30;99.90;;;;;;5023895;28;19909;-78
2023/01/23 03:24:10;;;;;;;;;;;-2.30;99.90;;;;;;5006714;28;20409;-78
2023/01/23 03:26:42;;;;;;;;;;;-2.20;99.90;;;;;;5024498;28;19909;-78
2023/01/23 03:32:00;;;;;;;;;;;-2.10;99.90;;;;;;5021350;28;19928;-78
2023/01/23 03:34:26;;;;;;;;;;;-2.10;99.90;;;;;;5023268;28;20440;-78
2023/01/23 03:36:51;;;;;;;;;;;-2.10;99.90;;;;;;5023919;28;19937;-78
2023/01/23 03:42:01;;;;;;;;;;;-2.00;99.90;;;;;;5024190;28;19963;-79
2023/01/23 03:44:26;;;;;;;;;;;-2.00;99.90;;;;;;5023511;28;20440;-79
2023/01/23 03:46:52;;;;;;;;;;;-2.00;99.90;;;;;;5025146;28;19949;-78
2023/01/23 03:49:18;;;;;;;;;;;-2.10;99.90;;;;;;5009040;28;19964;-79
2023/01/23 03:51:43;;;;;;;;;;;-2.00;99.90;;;;;;5023715;28;19996;-79
2023/01/23 03:54:09;;;;;;;;;;;-2.00;99.90;;;;;;5024916;28;19928;-79
2023/01/23 03:56:34;;;;;;;;;;;-2.00;99.90;;;;;;5022835;28;19910;-79
2023/01/23 03:59:00;;;;;;;;;;;-2.00;99.90;;;;;;5023409;28;19906;-78
2023/01/23 04:01:26;;;;;;;;;;;-2.00;99.90;;;;;;5025559;28;19918;-77
2023/01/23 04:03:51;;;;;;;;;;;-2.00;99.90;;;;;;5021694;28;20028;-77
2023/01/23 04:06:17;;;;;;;;;;;-2.00;99.90;;;;;;5022168;28;19913;-79
2023/01/23 04:08:43;;;;;;;;;;;-2.00;99.90;;;;;;5022632;28;20005;-79
2023/01/23 04:11:09;;;;;;;;;;;-2.00;99.90;;;;;;5023554;28;19960;-79
2023/01/23 04:13:35;;;;;;;;;;;-1.90;99.90;;;;;;5023140;28;19933;-78
2023/01/23 04:16:00;;;;;;;;;;;-1.90;99.90;;;;;;5005267;28;19913;-79
2023/01/23 04:18:26;;;;;;;;;;;-1.90;99.90;;;;;;5027595;28;19905;-78
2023/01/23 04:20:52;;;;;;;;;;;-1.90;99.90;;;;;;5020914;28;19968;-77
2023/01/23 04:23:18;;;;;;;;;;;-1.90;99.90;;;;;;5017819;28;19913;-77
2023/01/23 04:25:43;;;;;;;;;;;-1.90;99.90;;;;;;4996860;28;19921;-77
2023/01/23 04:28:09;;;;;;;;;;;-2.00;99.90;;;;;;5017604;28;19922;-78
2023/01/23 04:30:34;;;;;;;;;;;-1.90;99.90;;;;;;5021873;28;19966;-78
2023/01/23 04:33:00;;;;;;;;;;;-2.00;99.90;;;;;;5019379;28;20039;-78
2023/01/23 04:35:25;;;;;;;;;;;-2.00;99.90;;;;;;5022784;28;19921;-77
2023/01/23 04:37:51;;;;;;;;;;;-2.00;99.90;;;;;;5020292;28;19914;-78
2023/01/23 04:40:16;;;;;;;;;;;-2.00;99.90;;;;;;5002589;28;19959;-77
2023/01/23 04:42:42;;;;;;;;;;;-2.00;99.90;;;;;;5019720;28;19996;-78
2023/01/23 04:45:08;;;;;;;;;;;-2.10;99.90;;;;;;5017456;28;19918;-77
2023/01/23 04:47:34;;;;;;;;;;;-2.10;99.90;;;;;;5017769;28;19910;-78
2023/01/23 04:50:00;;;;;;;;;;;-2.10;99.90;;;;;;4997585;28;19913;-77
2023/01/23 04:52:25;;;;;;;;;;;-2.10;99.90;;;;;;5010983;28;19916;-77
2023/01/23 04:54:50;;;;;;;;;;;-2.00;99.90;;;;;;5014318;28;19924;-76
2023/01/23 04:57:16;;;;;;;;;;;-2.00;99.90;;;;;;5016217;28;19917;-77
2023/01/23 04:59:41;;;;;;;;;;;-2.00;99.90;;;;;;5016762;28;19940;-77
2023/01/23 05:02:08;;;;;;;;;;;-2.00;99.90;;;;;;5017172;28;20367;-77
2023/01/23 05:04:34;;;;;;;;;;;-2.00;99.90;;;;;;5016886;28;19929;-77
2023/01/23 05:06:59;;;;;;;;;;;-1.90;99.90;;;;;;5014110;28;19917;-78
2023/01/23 05:09:25;;;;;;;;;;;-1.90;99.90;;;;;;5016020;28;19953;-77
2023/01/23 05:11:50;;;;;;;;;;;-2.00;99.90;;;;;;5018295;28;20442;-77
2023/01/23 05:14:16;;;;;;;;;;;-1.90;99.90;;;;;;5015267;28;20403;-77
2023/01/23 05:16:41;;;;;;;;;;;-1.80;99.90;;;;;;5015541;28;19937;-77
2023/01/23 05:19:07;;;;;;;;;;;-1.80;99.90;;;;;;5018125;28;20028;-78
2023/01/23 05:21:34;;;;;;;;;;;-1.80;99.90;;;;;;5006623;28;19965;-80
2023/01/23 05:23:59;;;;;;;;;;;-1.80;99.90;;;;;;5027576;28;20023;-79
2023/01/23 05:26:25;;;;;;;;;;;-1.80;99.90;;;;;;5021310;28;19914;-79
2023/01/23 05:28:51;;;;;;;;;;;-1.70;99.90;;;;;;5020474;28;20353;-79
2023/01/23 05:31:17;;;;;;;;;;;-1.70;99.90;;;;;;4985945;28;19968;-79
2023/01/23 05:33:43;;;;;;;;;;;-1.70;99.90;;;;;;5017939;28;19933;-79
2023/01/23 05:36:09;;;;;;;;;;;-1.70;99.90;;;;;;5015851;28;19921;-80
2023/01/23 05:38:38;;;;;;;;;;;-1.70;99.90;;;;;;5022078;28;19913;-80
2023/01/23 05:41:03;;;;;;;;;;;-1.80;99.90;;;;;;5023386;28;19910;-79
2023/01/23 05:43:29;;;;;;;;;;;-1.80;99.90;;;;;;5007656;28;19925;-80
2023/01/23 05:45:54;;;;;;;;;;;-1.80;99.90;;;;;;5007740;28;20343;-79
2023/01/23 05:48:20;;;;;;;;;;;-1.80;99.90;;;;;;5030991;28;19969;-78
2023/01/23 05:50:45;;;;;;;;;;;-1.80;99.90;;;;;;5031357;28;19928;-79
2023/01/23 05:53:11;;;;;;;;;;;-1.70;99.90;;;;;;5034879;28;19901;-78
2023/01/23 05:55:37;;;;;;;;;;;-1.70;99.90;;;;;;5036565;28;19957;-78
2023/01/23 05:58:02;;;;;;;;;;;-1.70;99.90;;;;;;5037165;28;19925;-78
2023/01/23 06:00:28;;;;;;;;;;;-1.60;99.90;;;;;;5036994;28;19914;-78
2023/01/23 06:02:53;;;;;;;;;;;-1.60;99.90;;;;;;5030882;28;19917;-78
2023/01/23 06:05:19;;;;;;;;;;;-1.70;99.90;;;;;;5029575;28;19924;-79
2023/01/23 06:07:44;;;;;;;;;;;-1.70;99.90;;;;;;5021790;28;19917;-78
2023/01/23 06:10:10;;;;;;;;;;;-1.70;99.90;;;;;;5004273;28;20350;-79
2023/01/23 06:12:36;;;;;;;;;;;-1.80;99.90;;;;;;5023106;28;19932;-80
2023/01/23 06:15:01;;;;;;;;;;;-1.80;99.90;;;;;;5022122;28;19914;-79
2023/01/23 06:17:27;;;;;;;;;;;-1.80;99.90;;;;;;5022737;28;19929;-79
2023/01/23 06:19:52;;;;;;;;;;;-1.80;99.90;;;;;;5028590;28;19922;-78
2023/01/23 06:22:18;;;;;;;;;;;-1.80;99.90;;;;;;5011922;28;20020;-78
2023/01/23 06:24:43;;;;;;;;;;;-1.80;99.90;;;;;;5029435;28;19910;-78
2023/01/23 06:27:09;;;;;;;;;;;-1.80;99.90;;;;;;5031452;28;19941;-79
2023/01/23 06:29:35;;;;;;;;;;;-1.80;99.90;;;;;;5036144;28;19928;-78
2023/01/23 06:32:00;;;;;;;;;;;-1.80;99.90;;;;;;5036332;28;19914;-78
2023/01/23 06:34:26;;;;;;;;;;;-1.70;99.90;;;;;;5035465;28;20000;-78
2023/01/23 06:36:51;;;;;;;;;;;-1.70;99.90;;;;;;5019511;28;19925;-78
2023/01/23 06:39:17;;;;;;;;;;;-1.70;99.90;;;;;;5043106;28;19944;-77
2023/01/23 06:41:42;;;;;;;;;;;-1.60;99.90;;;;;;5056053;28;19913;-78
2023/01/23 06:44:08;;;;;;;;;;;-1.60;99.90;;;;;;5049000;28;19917;-78
2023/01/23 06:46:33;;;;;;;;;;;-1.60;99.90;;;;;;5046650;28;19909;-80
2023/01/23 06:48:59;;;;;;;;;;;-1.60;99.90;;;;;;5027440;28;19918;-78
2023/01/23 06:51:24;;;;;;;;;;;-1.60;99.90;;;;;;5024397;28;19909;-79
2023/01/23 06:53:50;;;;;;;;;;;-1.60;99.90;;;;;;5026522;28;19913;-79
2023/01/23 06:56:16;;;;;;;;;;;-1.60;99.90;;;;;;5025437;28;19910;-80
2023/01/23 06:58:44;;;;;;;;;;;-1.60;99.90;;;;;;5025309;28;19918;-79
2023/01/23 07:01:11;;;;;;;;;;;-1.70;99.90;;;;;;5027206;28;19933;-78
2023/01/23 07:03:37;;;;;;;;;;;-1.60;99.90;;;;;;5025492;28;19918;-78
2023/01/23 07:06:06;;;;;;;;;;;-1.60;99.90;;;;;;5008563;28;19913;-79
2023/01/23 07:08:32;;;;;;;;;;;-1.50;99.90;;;;;;5014106;28;19917;-79
2023/01/23 07:10:58;;;;;;;;;;;-1.50;99.90;;;;;;5028446;28;19926;-79
2023/01/23 07:13:23;;;;;;;;;;;-1.50;99.90;;;;;;5027692;28;20422;-78
2023/01/23 07:15:49;;;;;;;;;;;-1.50;99.90;;;;;;5028806;28;19961;-79
2023/01/23 07:18:14;;;;;;;;;;;-1.40;99.90;;;;;;5026445;28;20355;-80
2023/01/23 07:20:42;;;;;;;;;;;-1.40;99.90;;;;;;5028216;28;19913;-80
2023/01/23 07:23:08;;;;;;;;;;;-1.40;99.90;;;;;;5029139;28;19921;-80
2023/01/23 07:25:34;;;;;;;;;;;-1.40;99.90;;;;;;5028529;28;19981;-80
2023/01/23 07:27:59;;;;;;;;;;;-1.40;99.90;;;;;;5027733;28;19898;-79
2023/01/23 07:30:25;;;;;;;;;;;-1.30;99.90;;;;;;5012962;28;19913;-79
2023/01/23 07:32:51;;;;;;;;;;;-1.30;99.90;;;;;;5029417;28;19910;-78
2023/01/23 07:35:16;;;;;;;;;;;-1.30;99.90;;;;;;5028885;28;19909;-78
2023/01/23 07:37:42;;;;;;;;;;;-1.30;99.90;;;;;;5029541;28;20438;-78
2023/01/23 07:40:08;;;;;;;;;;;-1.30;99.90;;;;;;5012128;28;19921;-78
2023/01/23 07:42:33;;;;;;;;;;;-1.30;99.90;;;;;;5028505;28;19956;-78
2023/01/23 07:44:59;;;;;;;;;;;-1.30;99.90;;;;;;5031315;28;19936;-78
2023/01/23 07:47:24;;;;;;;;;;;-1.30;99.90;;;;;;5049043;28;19909;-77
2023/01/23 07:49:50;;;;;;;;;;;-1.40;99.90;;;;;;5043490;28;19932;-77
2023/01/23 07:52:15;;;;;;;;;;;-1.40;99.90;;;;;;5029451;28;20275;-77
2023/01/23 07:54:41;;;;;;;;;;;-1.30;99.90;;;;;;5029739;28;19913;-76
2023/01/23 07:57:06;;;;;;;;;;;-1.30;99.90;;;;;;5029924;28;19909;-78
2023/01/23 07:59:32;;;;;;;;;;;-1.30;99.90;;;;;;5030227;28;19901;-79
2023/01/23 08:01:58;;;;;;;;;;;-1.30;99.90;;;;;;5032339;28;19918;-78
2023/01/23 08:04:23;;;;;;;;;;;-1.20;99.90;;;;;;5031615;28;19914;-78
2023/01/23 08:06:49;;;;;;;;;;;-1.10;99.90;;;;;;5030232;28;19921;-78
2023/01/23 08:09:14;;;;;;;;;;;-1.00;99.90;;;;;;5030292;28;19898;-79
2023/01/23 08:11:40;;;;;;;;;;;-1.00;99.90;;;;;;5030620;28;20012;-78
2023/01/23 08:14:05;;;;;;;;;;;-1.00;99.90;;;;;;5028017;28;19921;-78
2023/01/23 08:16:31;;;;;;;;;;;-1.00;99.90;;;;;;5028515;28;19918;-77
2023/01/23 08:18:56;;;;;;;;;;;-1.00;99.90;;;;;;5010172;28;19918;-77
2023/01/23 08:21:22;;;;;;;;;;;-1.00;99.90;;;;;;5025443;28;19913;-77
2023/01/23 08:23:51;;;;;;;;;;;-0.90;99.90;;;;;;5026729;28;20445;-81
2023/01/23 08:26:17;;;;;;;;;;;-0.90;99.90;;;;;;5029141;28;19913;-78
2023/01/23 08:28:44;;;;;;;;;;;-0.80;99.90;;;;;;5025634;28;19956;-77
2023/01/23 08:31:15;;;;;;;;;;;-0.80;99.90;;;;;;5028268;28;19913;-78
2023/01/23 08:33:43;;;;;;;;;;;-0.90;99.90;;;;;;5051968;23;19925;-84
2023/01/23 08:36:17;;;;;;;;;;;-0.90;99.90;;;;;;5029982;28;19913;-85
2023/01/23 08:38:43;;;;;;;;;;;-0.80;99.90;;;;;;5037970;28;20337;-84
2023/01/23 08:41:10;;;;;;;;;;;-0.80;99.90;;;;;;5039905;28;19920;-83
2023/01/23 08:44:17;;;;;;;;;;;-0.80;99.90;;;;;;5015762;28;22276;-83
2023/01/23 08:46:48;;;;;;;;;;;-0.80;99.90;;;;;;5055724;28;19940;-84
2023/01/23 08:55:58;;;;;;;;;;;-0.70;99.90;;;;;;5040059;28;19917;-84
2023/01/23 09:02:15;;;;;;;;;;;-0.60;99.90;;;;;;5025712;28;19928;-84
2023/01/23 09:07:43;;;;;;;;;;;-0.70;99.90;;;;;;4986364;28;19985;-83
2023/01/23 09:10:10;;;;;;;;;;;-0.60;99.90;;;;;;4996076;28;20350;-84
2023/01/23 09:12:40;;;;;;;;;;;-0.60;99.90;;;;;;5009865;28;19909;-84
2023/01/23 09:15:06;;;;;;;;;;;-0.50;99.90;;;;;;5007024;28;19959;-83
2023/01/23 09:17:31;;;;;;;;;;;-0.50;99.90;;;;;;5023008;28;19937;-84
2023/01/23 09:19:59;;;;;;;;;;;-0.50;99.90;;;;;;5022644;28;20032;-84
2023/01/23 09:22:27;;;;;;;;;;;-0.50;99.90;;;;;;5023120;28;19909;-84
2023/01/23 09:24:56;;;;;;;;;;;-0.50;99.90;;;;;;5034860;28;19917;-82
2023/01/23 09:27:21;;;;;;;;;;;-0.50;99.90;;;;;;5028155;28;19917;-82
2023/01/23 09:29:48;;;;;;;;;;;-0.40;99.90;;;;;;5024950;28;19937;-83
2023/01/23 09:32:13;;;;;;;;;;;-0.40;99.90;;;;;;5026403;28;19944;-84
2023/01/23 09:34:39;;;;;;;;;;;-0.30;99.90;;;;;;4959834;28;1838701;-84
2023/01/23 09:37:04;;;;;;;;;;;-0.30;99.90;;;;;;5021367;28;19960;-86
2023/01/23 09:39:30;;;;;;;;;;;-0.20;99.90;;;;;;5010059;28;19913;-83
2023/01/23 09:41:56;;;;;;;;;;;-0.20;99.90;;;;;;5035407;28;19997;-83
2023/01/23 09:44:33;;;;;;;;;;;-0.20;99.90;;;;;;5032216;28;19924;-84
2023/01/23 09:47:03;;;;;;;;;;;-0.10;99.90;;;;;;5026119;28;19913;-83
2023/01/23 09:49:29;;;;;;;;;;;-0.10;99.90;;;;;;5034392;28;19937;-82
2023/01/23 09:51:57;;;;;;;;;;;-0.10;99.90;;;;;;5050007;28;19916;-83
2023/01/23 09:54:28;;;;;;;;;;;-0.10;99.90;;;;;;5041580;28;19919;-82
2023/01/23 09:56:54;;;;;;;;;;;-0.10;99.90;;;;;;5025312;28;20394;-84
2023/01/23 09:59:24;;;;;;;;;;;-0.10;99.90;;;;;;5027756;28;20390;-83
2023/01/23 10:01:50;;;;;;;;;;;-0.10;99.90;;;;;;5003751;28;20000;-86
2023/01/23 10:04:16;;;;;;;;;;;0.00;99.90;;;;;;5020249;28;20441;-87
2023/01/23 10:07:08;;;;;;;;;;;0.00;99.90;;;;;;5021491;28;19909;-86
2023/01/23 10:09:34;;;;;;;;;;;0.10;99.90;;;;;;4998270;28;20356;-84
2023/01/23 10:12:14;;;;;;;;;;;0.20;99.90;;;;;;5018304;28;19910;-84
2023/01/23 10:14:39;;;;;;;;;;;0.20;99.90;;;;;;5019000;28;19960;-84
2023/01/23 10:17:11;;;;;;;;;;;0.30;99.90;;;;;;5000893;28;19909;-84
2023/01/23 10:19:53;;;;;;;;;;;0.30;99.90;;;;;;5019004;28;19913;-84
2023/01/23 10:22:18;;;;;;;;;;;0.30;99.90;;;;;;5018795;28;20050;-86
2023/01/23 10:24:51;;;;;;;;;;;0.30;99.90;;;;;;5023826;28;20258;-86
2023/01/23 10:27:18;;;;;;;;;;;0.30;99.90;;;;;;5019542;28;19909;-84
2023/01/23 10:29:47;;;;;;;;;;;0.40;99.90;;;;;;5037704;28;19910;-84
2023/01/23 10:32:27;;;;;;;;;;;0.40;99.90;;;;;;5013581;28;19913;-84
2023/01/23 10:35:02;;;;;;;;;;;0.30;99.90;;;;;;5018300;28;19921;-84
2023/01/23 10:37:57;;;;;;;;;;;0.30;99.90;;;;;;5001058;28;19932;-84
2023/01/23 10:43:17;;;;;;;;;;;0.40;99.90;;;;;;5019674;28;19916;-84
2023/01/23 10:45:43;;;;;;;;;;;0.50;99.90;;;;;;5018103;28;19989;-84
2023/01/23 10:48:28;;;;;;;;;;;0.50;99.90;;;;;;5057607;28;19916;-84
2023/01/23 10:50:54;;;;;;;;;;;0.50;99.90;;;;;;5044224;28;19972;-84
2023/01/23 10:53:20;;;;;;;;;;;0.60;99.90;;;;;;5042174;28;19952;-84
2023/01/23 10:55:47;;;;;;;;;;;0.60;99.90;;;;;;5023355;28;19984;-84
2023/01/23 10:58:21;;;;;;;;;;;0.60;99.90;;;;;;5025401;28;19978;-83
2023/01/23 11:00:47;;;;;;;;;;;0.70;99.90;;;;;;5024669;28;19952;-83
2023/01/23 11:03:19;;;;;;;;;;;0.70;99.90;;;;;;5029575;28;19909;-84
2023/01/23 11:05:52;;;;;;;;;;;0.80;99.90;;;;;;5028579;28;19910;-83
2023/01/23 11:08:21;;;;;;;;;;;0.80;99.90;;;;;;5025860;28;19924;-82
2023/01/23 11:10:46;;;;;;;;;;;0.90;99.90;;;;;;5057018;28;19936;-83
2023/01/23 11:13:24;;;;;;;;;;;1.00;99.90;;;;;;5057216;28;19897;-83
2023/01/23 11:16:09;;;;;;;;;;;0.90;99.90;;;;;;5058195;28;19905;-83
2023/01/23 11:18:41;;;;;;;;;;;1.00;99.90;;;;;;5003509;28;19910;-84
2023/01/23 11:21:19;;;;;;;;;;;1.10;99.90;;;;;;5018229;28;19898;-84
2023/01/23 11:24:06;;;;;;;;;;;1.20;99.90;;;;;;5017864;28;19909;-84
2023/01/23 11:26:32;;;;;;;;;;;1.30;99.90;;;;;;5020937;28;19976;-84
2023/01/23 11:28:58;;;;;;;;;;;1.20;99.90;;;;;;5050489;28;19917;-84
2023/01/23 11:31:28;;;;;;;;;;;1.20;99.90;;;;;;5033212;28;19968;-84
2023/01/23 11:34:10;;;;;;;;;;;1.20;99.90;;;;;;5032355;28;19921;-84
2023/01/23 11:36:55;;;;;;;;;;;1.20;99.90;;;;;;5016637;28;19906;-84
2023/01/23 11:39:27;;;;;;;;;;;1.10;99.90;;;;;;5047852;28;19928;-84
2023/01/23 11:41:52;;;;;;;;;;;1.00;99.90;;;;;;5058817;28;19913;-84
2023/01/23 11:44:19;;;;;;;;;;;1.00;99.90;;;;;;5074006;28;19909;-84
2023/01/23 11:47:04;;;;;;;;;;;0.90;99.90;;;;;;5058723;28;19956;-84
2023/01/23 11:49:40;;;;;;;;;;;0.90;99.90;;;;;;5019346;28;19982;-84
2023/01/23 11:52:08;;;;;;;;;;;0.80;99.90;;;;;;5018975;28;19933;-87
2023/01/23 11:54:49;;;;;;;;;;;0.80;99.90;;;;;;5001136;28;19989;-87
2023/01/23 11:57:34;;;;;;;;;;;0.80;99.90;;;;;;5002772;28;20026;-86
2023/01/23 11:59:59;;;;;;;;;;;0.80;99.90;;;;;;5038757;28;19910;-86
2023/01/23 12:02:44;;;;;;;;;;;0.70;99.90;;;;;;5038860;28;19908;-87
2023/01/23 12:05:25;;;;;;;;;;;0.70;99.90;;;;;;5016678;28;19989;-86
2023/01/23 12:08:09;;;;;;;;;;;0.70;99.90;;;;;;5050001;28;19989;-84
2023/01/23 12:10:46;;;;;;;;;;;0.70;99.90;;;;;;5013040;28;19912;-84
2023/01/23 12:13:12;;;;;;;;;;;0.80;99.90;;;;;;5005236;28;19921;-82
2023/01/23 12:15:44;;;;;;;;;;;0.90;99.90;;;;;;5009284;28;19909;-82
2023/01/23 12:18:15;;;;;;;;;;;1.00;99.90;;;;;;5038845;28;19928;-83
2023/01/23 12:21:01;;;;;;;;;;;1.10;99.90;;;;;;5038482;28;19913;-83
2023/01/23 12:23:28;;;;;;;;;;;1.20;99.90;;;;;;5009175;28;19909;-83
2023/01/23 12:25:56;;;;;;;;;;;1.20;99.90;;;;;;5009358;28;20368;-83
2023/01/23 12:28:35;;;;;;;;;;;1.20;99.90;;;;;;5034769;28;19968;-84
2023/01/23 12:31:06;;;;;;;;;;;1.10;99.90;;;;;;5032739;28;19988;-82
2023/01/23 12:33:41;;;;;;;;;;;1.00;99.90;;;;;;5018526;28;20008;-85
2023/01/23 12:36:23;;;;;;;;;;;1.00;99.90;;;;;;4999272;28;19914;-83
2023/01/23 12:38:58;;;;;;;;;;;1.10;99.90;;;;;;5008753;28;19945;-86
2023/01/23 12:41:27;;;;;;;;;;;1.10;99.90;;;;;;5041034;28;19928;-86
2023/01/23 12:43:59;;;;;;;;;;;1.10;99.90;;;;;;5057771;28;19912;-87
2023/01/23 12:46:27;;;;;;;;;;;1.20;99.90;;;;;;5057587;28;19901;-86
2023/01/23 12:49:26;;;;;;;;;;;1.20;99.90;;;;;;5057726;28;19979;-86
2023/01/23 12:51:54;;;;;;;;;;;1.20;99.90;;;;;;5011899;28;19932;-87
2023/01/23 12:54:26;;;;;;;;;;;1.20;99.90;;;;;;5017995;28;19902;-87
2023/01/23 12:56:52;;;;;;;;;;;1.10;99.90;;;;;;5018061;28;19902;-87
2023/01/23 12:59:26;;;;;;;;;;;1.10;99.90;;;;;;5006399;28;19918;-84
2023/01/23 13:02:13;;;;;;;;;;;1.10;99.90;;;;;;5005972;28;19975;-84
2023/01/23 13:04:57;;;;;;;;;;;1.00;99.90;;;;;;5020654;28;20004;-85
2023/01/23 13:07:34;;;;;;;;;;;1.00;99.90;;;;;;5003546;28;20398;-86
2023/01/23 13:10:18;;;;;;;;;;;1.00;99.90;;;;;;5021366;28;19910;-85
2023/01/23 13:12:44;;;;;;;;;;;1.00;99.90;;;;;;5020066;28;19909;-85
2023/01/23 13:15:15;;;;;;;;;;;1.00;99.90;;;;;;5019867;28;19968;-86
2023/01/23 13:17:41;;;;;;;;;;;1.00;99.90;;;;;;5011530;28;20007;-85
2023/01/23 13:23:34;;;;;;;;;;;1.10;99.90;;;;;;5039518;28;19931;-86
2023/01/23 13:26:11;;;;;;;;;;;1.10;99.90;;;;;;5006350;28;20001;-85
2023/01/23 13:28:54;;;;;;;;;;;1.20;99.90;;;;;;5025790;28;19918;-86
2023/01/23 13:31:32;;;;;;;;;;;1.10;99.90;;;;;;5002025;28;19910;-85
2023/01/23 13:34:24;;;;;;;;;;;1.10;99.90;;;;;;5018172;28;19975;-86
2023/01/23 13:36:51;;;;;;;;;;;1.10;99.90;;;;;;5017958;28;19917;-85
2023/01/23 13:39:18;;;;;;;;;;;1.10;99.90;;;;;;5017876;28;19913;-86
2023/01/23 13:42:03;;;;;;;;;;;1.10;99.90;;;;;;5027524;28;19916;-85
2023/01/23 13:44:30;;;;;;;;;;;1.00;99.90;;;;;;5052790;28;19909;-87
2023/01/23 13:47:01;;;;;;;;;;;1.00;99.90;;;;;;5032921;28;19909;-85
2023/01/23 13:49:52;;;;;;;;;;;1.00;99.90;;;;;;5030122;28;19935;-85
2023/01/23 13:57:57;;;;;;;;;;;1.00;99.90;;;;;;5022429;28;19916;-84
2023/01/23 14:00:23;;;;;;;;;;;1.00;99.90;;;;;;5041253;28;19921;-84
2023/01/23 14:05:38;;;;;;;;;;;1.00;99.90;;;;;;5023371;28;19987;-84
2023/01/23 14:08:04;;;;;;;;;;;0.90;99.90;;;;;;5030869;28;19948;-84
2023/01/23 14:10:43;;;;;;;;;;;0.90;99.90;;;;;;5015557;28;19913;-86
2023/01/23 14:13:10;;;;;;;;;;;1.00;99.90;;;;;;5014963;28;19917;-85
2023/01/23 14:18:32;;;;;;;;;;;1.00;99.90;;;;;;5023117;28;19916;-86
2023/01/23 14:21:19;;;;;;;;;;;1.10;99.90;;;;;;5041109;28;19913;-86
2023/01/23 14:23:47;;;;;;;;;;;1.10;99.90;;;;;;5039140;28;19909;-86
2023/01/23 14:26:15;;;;;;;;;;;1.20;99.90;;;;;;5038343;28;19971;-86
2023/01/23 14:28:54;;;;;;;;;;;1.20;99.90;;;;;;5037721;28;19915;-84
2023/01/23 14:31:24;;;;;;;;;;;1.30;99.90;;;;;;5017176;28;19940;-85
2023/01/23 14:34:01;;;;;;;;;;;1.30;99.90;;;;;;5015838;28;19945;-84
2023/01/23 14:36:27;;;;;;;;;;;1.40;99.90;;;;;;4999343;28;20293;-84
2023/01/23 14:38:54;;;;;;;;;;;1.40;99.90;;;;;;5016877;28;19919;-84
2023/01/23 14:41:23;;;;;;;;;;;1.40;99.90;;;;;;5017903;28;20378;-85
2023/01/23 14:43:51;;;;;;;;;;;1.40;99.90;;;;;;4999610;28;20043;-85
2023/01/23 14:46:18;;;;;;;;;;;1.40;99.90;;;;;;4998752;28;19971;-85
2023/01/23 14:48:47;;;;;;;;;;;1.40;99.90;;;;;;5009234;28;19921;-87
2023/01/23 14:51:16;;;;;;;;;;;1.40;99.90;;;;;;5032775;28;19948;-85
2023/01/23 14:53:41;;;;;;;;;;;1.40;99.90;;;;;;4999624;28;19920;-85
2023/01/23 14:56:10;;;;;;;;;;;1.40;99.90;;;;;;5017596;28;19910;-86
2023/01/23 14:58:39;;;;;;;;;;;1.40;99.90;;;;;;5021309;28;19916;-85
2023/01/23 15:01:05;;;;;;;;;;;1.40;99.90;;;;;;5024933;28;19913;-86
2023/01/23 15:03:38;;;;;;;;;;;1.40;99.90;;;;;;5022118;28;19928;-85
2023/01/23 15:06:15;;;;;;;;;;;1.40;99.90;;;;;;4986295;28;19917;-85
2023/01/23 15:09:07;;;;;;;;;;;1.50;99.90;;;;;;5001071;28;19917;-86